Terminal Aerodrome Forecast
Issued by NWS

Home | Current Version | Previous Version | Text Only | Print | Product List | Glossary On
Versions: 1 2 3 4 5 6 7 8 9 10 11 12 13 14 15 16 17 18
000
FTUS45 KRIW 291127
TAFBPI
TAF
KBPI 291127Z 2912/3012 VRB06KT P6SM SKC
     FM291700 10008KT P6SM SKC
     FM292200 VRB12G20KT P6SM VCTS SCT070CB BKN150
     FM300500 VRB05KT P6SM SCT150=

USA.gov is the U.S. government's official web portal to all federal, state and local government web resources and services.